Time;durP1;ratioP1;P1;durP2;ratioP2;P2;SDS_P1;SDS_P2;PMS_P1;PMS_P2;Temp;Humidity;BMP_temperature;BMP_pressure;BME280_temperature;BME280_humidity;BME280_pressure;Samples;Min_cycle;Max_cycle;Signal;HPM_P1;HPM_P2
2021/11/29 00:01:56;;;;;;;6.82;2.72;;;9.40;99.90;;;;;;4958715;28;20175;-93
2021/11/29 00:04:22;;;;;;;4.78;2.55;;;9.40;99.90;;;;;;4958836;28;20046;-92
2021/11/29 00:06:48;;;;;;;6.10;2.38;;;9.40;99.90;;;;;;4958616;28;20039;-92
2021/11/29 00:09:14;;;;;;;5.13;2.38;;;9.40;99.90;;;;;;4958702;28;20038;-92
2021/11/29 00:11:40;;;;;;;8.95;3.88;;;9.50;99.90;;;;;;4958824;28;20035;-92
2021/11/29 00:14:06;;;;;;;4.47;2.08;;;9.50;99.90;;;;;;4958512;28;20031;-92
2021/11/29 00:16:32;;;;;;;7.13;3.20;;;9.50;99.90;;;;;;4958554;28;20042;-93
2021/11/29 00:18:59;;;;;;;7.15;3.22;;;9.40;99.90;;;;;;4958669;28;20090;-93
2021/11/29 00:21:25;;;;;;;5.47;3.30;;;9.50;99.90;;;;;;4958214;28;20051;-93
2021/11/29 00:23:51;;;;;;;10.63;4.30;;;9.50;99.90;;;;;;4958532;28;20039;-92
2021/11/29 00:26:19;;;;;;;7.93;3.00;;;9.50;99.90;;;;;;4958759;28;20031;-93
2021/11/29 00:28:45;;;;;;;6.03;3.13;;;9.40;99.90;;;;;;4958737;28;20493;-93
2021/11/29 00:31:12;;;;;;;13.93;4.95;;;9.40;99.90;;;;;;4959071;28;20061;-93
2021/11/29 00:33:39;;;;;;;20.95;4.10;;;9.40;99.90;;;;;;4958507;28;20073;-93
2021/11/29 00:36:06;;;;;;;13.52;4.55;;;9.40;99.90;;;;;;4958463;28;20117;-92
2021/11/29 00:38:32;;;;;;;6.72;3.88;;;9.40;99.90;;;;;;4958310;28;20043;-93
2021/11/29 00:40:58;;;;;;;29.48;4.68;;;9.30;99.90;;;;;;4960017;28;20041;-92
2021/11/29 00:43:24;;;;;;;23.58;5.15;;;9.30;99.90;;;;;;4962647;28;20090;-92
2021/11/29 00:45:50;;;;;;;6.32;3.50;;;9.30;99.90;;;;;;4979629;28;20026;-92
2021/11/29 00:48:16;;;;;;;5.22;2.70;;;9.30;99.90;;;;;;4962873;28;20035;-92
2021/11/29 00:50:42;;;;;;;5.57;3.13;;;9.30;99.90;;;;;;4962590;28;20533;-93
2021/11/29 00:53:10;;;;;;;9.32;3.63;;;9.30;99.90;;;;;;4966405;28;20381;-93
2021/11/29 00:55:37;;;;;;;7.15;3.38;;;9.30;99.90;;;;;;4968884;28;20031;-93
2021/11/29 00:58:04;;;;;;;6.45;3.80;;;9.30;99.90;;;;;;4971624;28;20057;-93
2021/11/29 01:00:31;;;;;;;6.15;3.33;;;9.30;99.90;;;;;;4973747;28;20042;-92
2021/11/29 01:02:57;;;;;;;9.77;3.33;;;9.30;99.90;;;;;;4978743;28;20039;-93
2021/11/29 01:05:24;;;;;;;6.40;3.33;;;9.30;99.90;;;;;;4977643;28;20041;-92
2021/11/29 01:07:50;;;;;;;6.00;3.30;;;9.30;99.90;;;;;;4974667;28;20043;-93
2021/11/29 01:10:18;;;;;;;5.18;3.42;;;9.30;99.90;;;;;;4967091;28;20031;-93
2021/11/29 01:12:45;;;;;;;4.35;2.50;;;9.30;99.90;;;;;;4964032;28;20078;-92
2021/11/29 01:15:15;;;;;;;6.35;3.70;;;9.30;99.90;;;;;;4979277;28;20042;-92
2021/11/29 01:17:41;;;;;;;7.72;3.92;;;9.30;99.90;;;;;;4979368;28;20054;-92
2021/11/29 01:20:08;;;;;;;9.35;4.55;;;9.30;99.90;;;;;;4961958;28;20051;-92
2021/11/29 01:22:34;;;;;;;8.35;4.32;;;9.30;99.90;;;;;;4961958;28;20050;-92
2021/11/29 01:25:00;;;;;;;6.65;3.42;;;9.30;99.90;;;;;;4961733;28;20466;-92
2021/11/29 01:27:26;;;;;;;8.25;3.00;;;9.30;99.90;;;;;;4961465;28;20045;-92
2021/11/29 01:29:52;;;;;;;7.32;3.63;;;9.40;99.90;;;;;;4961613;28;20034;-93
2021/11/29 01:32:18;;;;;;;7.25;3.95;;;9.40;99.90;;;;;;4961360;28;20073;-93
2021/11/29 01:34:44;;;;;;;6.95;3.47;;;9.40;99.90;;;;;;4963605;28;20035;-93
2021/11/29 01:37:10;;;;;;;6.68;3.00;;;9.40;99.90;;;;;;4962468;28;20031;-93
2021/11/29 01:39:36;;;;;;;8.50;3.80;;;9.50;99.90;;;;;;4961943;28;20485;-93
2021/11/29 01:42:02;;;;;;;11.10;4.45;;;9.50;99.90;;;;;;4961852;28;20038;-92
2021/11/29 01:44:28;;;;;;;8.52;4.45;;;9.50;99.90;;;;;;4991656;28;20094;-93
2021/11/29 01:46:54;;;;;;;9.50;4.38;;;9.50;99.90;;;;;;4975104;28;20031;-93
2021/11/29 01:49:20;;;;;;;7.65;3.95;;;9.60;99.90;;;;;;4963458;28;20046;-93
2021/11/29 01:51:46;;;;;;;8.38;4.00;;;9.60;99.90;;;;;;4960438;28;20031;-93
2021/11/29 01:54:13;;;;;;;5.47;2.97;;;9.60;99.90;;;;;;4960823;28;20125;-92
2021/11/29 01:56:39;;;;;;;7.95;3.70;;;9.60;99.90;;;;;;4961332;28;20045;-93
2021/11/29 01:59:06;;;;;;;5.55;3.88;;;9.60;99.90;;;;;;4960865;28;20043;-92
2021/11/29 02:01:33;;;;;;;9.15;3.83;;;9.70;99.90;;;;;;4961004;28;20042;-92
2021/11/29 02:04:00;;;;;;;5.53;3.38;;;9.70;99.90;;;;;;4978148;28;20043;-92
2021/11/29 02:06:28;;;;;;;5.75;3.58;;;9.80;99.90;;;;;;4961277;28;20102;-93
2021/11/29 02:08:55;;;;;;;9.50;3.75;;;9.80;99.90;;;;;;4960989;28;20038;-92
2021/11/29 02:11:22;;;;;;;4.75;3.20;;;9.80;99.90;;;;;;4961329;28;20504;-92
2021/11/29 02:13:48;;;;;;;6.22;2.78;;;9.80;99.90;;;;;;4960859;28;20050;-93
2021/11/29 02:16:15;;;;;;;5.75;3.00;;;9.80;99.90;;;;;;4960886;28;20035;-93
2021/11/29 02:18:41;;;;;;;5.30;2.95;;;9.90;99.90;;;;;;4962628;28;20055;-92
2021/11/29 02:21:10;;;;;;;7.43;3.30;;;9.90;99.90;;;;;;4974210;28;20043;-93
2021/11/29 02:23:39;;;;;;;7.38;3.85;;;10.00;99.90;;;;;;4973689;28;20034;-92
2021/11/29 02:26:05;;;;;;;7.55;3.47;;;10.00;99.90;;;;;;4972605;28;20115;-92
2021/11/29 02:28:32;;;;;;;7.05;3.53;;;10.00;99.90;;;;;;4982919;28;20512;-92
2021/11/29 02:30:58;;;;;;;6.32;3.50;;;10.00;99.90;;;;;;4982027;28;20022;-93
2021/11/29 02:33:27;;;;;;;6.40;3.70;;;10.10;99.90;;;;;;4983614;28;20106;-93
2021/11/29 02:35:53;;;;;;;8.40;4.47;;;10.10;99.90;;;;;;4981138;28;20035;-92
2021/11/29 02:38:19;;;;;;;7.88;3.95;;;10.10;99.90;;;;;;4972159;28;20081;-93
2021/11/29 02:40:45;;;;;;;5.43;3.47;;;10.10;99.90;;;;;;4963379;28;20035;-92
2021/11/29 02:43:11;;;;;;;5.07;3.50;;;10.10;99.90;;;;;;4960665;28;20126;-93
2021/11/29 02:45:37;;;;;;;8.70;4.07;;;10.10;99.90;;;;;;4960769;28;20113;-92
2021/11/29 02:48:03;;;;;;;7.50;3.50;;;10.10;99.90;;;;;;4960295;28;20478;-92
2021/11/29 02:50:33;;;;;;;8.88;3.90;;;10.10;99.90;;;;;;4961172;28;20039;-92
2021/11/29 02:52:59;;;;;;;4.72;3.08;;;10.10;99.90;;;;;;4960076;28;20035;-93
2021/11/29 02:55:24;;;;;;;6.88;3.33;;;10.00;99.90;;;;;;4960090;28;20375;-93
2021/11/29 02:57:50;;;;;;;5.43;3.42;;;10.00;99.90;;;;;;4959875;28;20051;-93
2021/11/29 03:00:16;;;;;;;5.38;3.00;;;10.00;99.90;;;;;;4960115;28;20058;-92
2021/11/29 03:02:42;;;;;;;5.95;4.05;;;10.00;99.90;;;;;;4960268;28;20038;-92
2021/11/29 03:05:09;;;;;;;7.03;3.53;;;10.00;99.90;;;;;;4958997;28;20474;-92
2021/11/29 03:07:34;;;;;;;4.45;3.13;;;10.00;99.90;;;;;;4962283;28;20039;-92
2021/11/29 03:10:00;;;;;;;6.57;3.65;;;10.00;99.90;;;;;;4967769;28;20042;-92
2021/11/29 03:12:26;;;;;;;4.05;2.65;;;10.00;99.90;;;;;;4973740;28;20078;-93
2021/11/29 03:14:52;;;;;;;4.53;2.72;;;10.10;99.90;;;;;;4971927;28;20438;-93
2021/11/29 03:17:18;;;;;;;4.80;2.60;;;10.10;99.90;;;;;;4970529;28;20041;-92
2021/11/29 03:19:47;;;;;;;6.05;3.75;;;10.10;99.90;;;;;;4966287;28;20467;-92
2021/11/29 03:22:13;;;;;;;4.50;2.78;;;10.10;99.90;;;;;;4959715;28;20070;-92
2021/11/29 03:24:45;;;;;;;5.38;3.22;;;10.10;99.90;;;;;;4976569;28;20101;-92
2021/11/29 03:27:12;;;;;;;4.43;2.78;;;10.10;99.90;;;;;;4959203;28;20070;-92
2021/11/29 03:29:38;;;;;;;7.20;3.40;;;10.10;99.90;;;;;;4959604;28;20050;-92
2021/11/29 03:32:05;;;;;;;4.07;2.55;;;10.20;99.90;;;;;;4959521;28;20038;-93
2021/11/29 03:34:32;;;;;;;7.05;3.33;;;10.10;99.90;;;;;;4959510;28;20449;-93
2021/11/29 03:36:58;;;;;;;6.47;3.72;;;10.20;99.90;;;;;;4959029;28;20035;-93
2021/11/29 03:39:27;;;;;;;6.43;3.30;;;10.20;99.90;;;;;;4958973;28;20038;-92
2021/11/29 03:41:56;;;;;;;6.43;4.68;;;10.20;99.90;;;;;;4976310;28;20034;-92
2021/11/29 03:44:23;;;;;;;4.88;3.42;;;10.10;99.90;;;;;;4959134;28;20113;-92
2021/11/29 03:46:50;;;;;;;7.20;3.88;;;10.20;99.90;;;;;;4961264;28;20034;-92
2021/11/29 03:49:17;;;;;;;4.72;2.92;;;10.20;99.90;;;;;;4964381;28;20133;-92
2021/11/29 03:51:42;;;;;;;5.60;3.25;;;10.20;99.90;;;;;;4965456;28;20035;-93
2021/11/29 03:54:08;;;;;;;7.88;4.15;;;10.20;99.90;;;;;;4969300;28;20039;-93
2021/11/29 03:56:35;;;;;;;6.10;2.72;;;10.20;99.90;;;;;;4975469;28;20110;-92
2021/11/29 03:59:02;;;;;;;7.22;3.35;;;10.20;99.90;;;;;;4976281;28;20054;-93
2021/11/29 04:01:28;;;;;;;5.47;2.85;;;10.30;99.90;;;;;;4973475;28;20142;-93
2021/11/29 04:03:54;;;;;;;5.35;3.33;;;10.20;99.90;;;;;;4959661;28;20482;-93
2021/11/29 04:06:20;;;;;;;3.75;2.58;;;10.20;99.90;;;;;;4958944;28;20090;-93
2021/11/29 04:08:46;;;;;;;4.85;2.88;;;10.20;99.90;;;;;;4958957;28;20101;-92
2021/11/29 04:11:12;;;;;;;4.18;2.78;;;10.30;99.90;;;;;;4958337;28;20035;-93
2021/11/29 04:13:38;;;;;;;4.60;3.45;;;10.30;99.90;;;;;;4958701;28;20390;-92
2021/11/29 04:16:04;;;;;;;4.88;3.00;;;10.30;99.90;;;;;;4958266;28;20050;-93
2021/11/29 04:18:30;;;;;;;4.20;2.80;;;10.30;99.90;;;;;;4958373;28;20046;-92
2021/11/29 04:20:56;;;;;;;4.95;2.63;;;10.30;99.90;;;;;;4975961;28;20046;-93
2021/11/29 04:23:22;;;;;;;5.05;3.30;;;10.40;99.90;;;;;;4958597;28;20105;-93
2021/11/29 04:25:53;;;;;;;7.10;3.10;;;10.30;99.90;;;;;;4958587;28;20035;-93
2021/11/29 04:28:19;;;;;;;7.85;3.45;;;10.30;99.90;;;;;;4958600;28;20038;-93
2021/11/29 04:30:46;;;;;;;3.78;2.75;;;10.30;99.90;;;;;;4958443;28;20070;-92
2021/11/29 04:33:12;;;;;;;5.93;3.63;;;10.40;99.90;;;;;;4958683;28;20035;-93
2021/11/29 04:35:38;;;;;;;6.30;3.53;;;10.30;99.90;;;;;;4958580;28;20502;-92
2021/11/29 04:38:04;;;;;;;7.07;4.65;;;10.40;99.90;;;;;;4959295;28;20038;-93
2021/11/29 04:40:30;;;;;;;6.15;3.58;;;10.30;99.90;;;;;;4958599;28;20066;-93
2021/11/29 04:42:56;;;;;;;6.38;3.40;;;10.40;99.90;;;;;;4958423;28;20041;-92
2021/11/29 04:45:25;;;;;;;6.70;3.63;;;10.30;99.90;;;;;;4958675;28;20035;-92
2021/11/29 04:47:51;;;;;;;6.15;3.25;;;10.40;99.90;;;;;;4959217;28;20129;-92
2021/11/29 04:50:17;;;;;;;6.28;4.15;;;10.30;99.90;;;;;;4958316;28;20045;-93
2021/11/29 04:52:44;;;;;;;8.55;5.13;;;10.40;99.90;;;;;;4958384;28;20035;-93
2021/11/29 04:55:11;;;;;;;7.03;4.43;;;10.30;99.90;;;;;;4958217;28;20035;-93
2021/11/29 04:57:38;;;;;;;12.07;6.25;;;10.30;99.90;;;;;;4958483;28;20090;-92
2021/11/29 05:00:07;;;;;;;10.57;5.93;;;10.30;99.90;;;;;;4958555;28;20039;-93
2021/11/29 05:02:33;;;;;;;10.10;5.68;;;10.40;99.90;;;;;;4958327;28;20122;-93
2021/11/29 05:04:59;;;;;;;9.15;5.38;;;10.40;99.90;;;;;;4957954;28;20516;-92
2021/11/29 05:07:25;;;;;;;9.90;5.75;;;10.40;99.90;;;;;;4958297;28;20031;-93
2021/11/29 05:09:51;;;;;;;12.82;4.85;;;10.40;99.90;;;;;;4958267;28;20497;-93
2021/11/29 05:12:18;;;;;;;12.00;6.55;;;10.40;99.90;;;;;;4958322;28;20039;-92
2021/11/29 05:14:46;;;;;;;10.57;6.30;;;10.40;99.90;;;;;;4965002;28;20106;-93
2021/11/29 05:17:13;;;;;;;9.32;5.20;;;10.40;99.90;;;;;;4971096;28;20035;-93
2021/11/29 05:19:39;;;;;;;11.00;5.57;;;10.50;99.90;;;;;;4972844;28;20050;-92
2021/11/29 05:22:05;;;;;;;12.27;5.30;;;10.50;99.90;;;;;;4977280;28;20042;-93
2021/11/29 05:24:33;;;;;;;8.15;5.15;;;10.60;99.90;;;;;;4978417;28;20035;-92
2021/11/29 05:26:59;;;;;;;9.20;4.95;;;10.60;99.90;;;;;;4980479;28;20031;-93
2021/11/29 05:29:25;;;;;;;9.65;5.32;;;10.70;99.90;;;;;;4982999;28;20038;-91
2021/11/29 05:31:51;;;;;;;7.00;4.70;;;10.70;99.90;;;;;;4982890;28;20035;-92
2021/11/29 05:34:18;;;;;;;7.05;4.40;;;10.70;99.90;;;;;;4981065;28;20069;-91
2021/11/29 05:36:44;;;;;;;7.93;5.32;;;10.70;99.90;;;;;;4967544;28;20042;-91
2021/11/29 05:39:13;;;;;;;6.47;4.53;;;10.80;99.90;;;;;;4965694;28;20459;-91
2021/11/29 05:41:39;;;;;;;11.73;4.68;;;10.80;99.90;;;;;;4963101;28;20039;-91
2021/11/29 05:44:05;;;;;;;7.32;4.20;;;10.90;99.90;;;;;;4962373;28;20034;-92
2021/11/29 05:46:31;;;;;;;9.02;5.68;;;11.00;99.90;;;;;;4962482;28;20077;-91
2021/11/29 05:48:57;;;;;;;7.47;3.95;;;11.10;99.90;;;;;;4961417;28;20045;-92
2021/11/29 05:51:23;;;;;;;6.43;4.47;;;11.10;99.90;;;;;;4962023;28;20363;-93
2021/11/29 05:53:49;;;;;;;7.35;4.63;;;11.10;99.90;;;;;;4962009;28;20042;-93
2021/11/29 05:56:16;;;;;;;8.38;4.50;;;11.20;99.90;;;;;;4961703;28;20035;-92
2021/11/29 05:58:50;;;;;;;6.60;4.93;;;11.30;99.90;;;;;;4962934;28;20102;-91
2021/11/29 06:01:16;;;;;;;10.05;5.38;;;11.30;99.90;;;;;;4961806;28;20044;-92
2021/11/29 06:03:44;;;;;;;7.38;5.22;;;11.40;99.90;;;;;;4961536;28;20193;-92
2021/11/29 06:06:14;;;;;;;5.80;4.10;;;11.40;99.90;;;;;;4964157;28;20035;-92
2021/11/29 06:08:50;;;;;;;;;;;;;;;;;;;;;
2021/11/29 06:11:23;;;;;;;7.88;4.40;;;11.60;99.90;;;;;;4981003;28;20114;-91
2021/11/29 06:13:50;;;;;;;7.82;4.18;;;11.60;99.90;;;;;;4962161;28;20042;-91
2021/11/29 06:16:16;;;;;;;7.88;4.72;;;11.70;99.90;;;;;;4966012;28;20069;-93
2021/11/29 06:18:45;;;;;;;7.63;4.45;;;11.80;99.90;;;;;;4967082;28;20051;-92
2021/11/29 06:21:11;;;;;;;10.35;6.78;;;11.80;99.90;;;;;;4963157;28;20078;-92
2021/11/29 06:23:37;;;;;;;12.90;6.45;;;11.90;99.90;;;;;;4962229;28;20067;-92
2021/11/29 06:26:07;;;;;;;10.40;5.68;;;11.90;99.90;;;;;;4961762;28;20038;-93
2021/11/29 06:28:39;;;;;;;6.95;4.75;;;11.90;99.90;;;;;;4962020;28;20034;-93
2021/11/29 06:31:08;;;;;;;7.30;5.05;;;12.00;99.90;;;;;;4962319;28;20039;-93
2021/11/29 06:36:39;;;;;;;11.23;4.33;;;12.10;99.90;;;;;;4978684;28;20047;-92
2021/11/29 06:39:05;;;;;;;8.15;4.78;;;12.10;99.90;;;;;;4961645;28;20038;-91
2021/11/29 06:41:47;;;;;;;8.77;5.38;;;12.10;99.90;;;;;;4969596;28;20035;-93
2021/11/29 06:44:20;;;;;;;8.07;4.35;;;12.20;99.90;;;;;;4978910;28;20019;-92
2021/11/29 06:46:55;;;;;;;7.60;5.13;;;12.20;99.90;;;;;;4981169;28;20023;-93
2021/11/29 06:49:21;;;;;;;11.07;5.65;;;12.30;99.90;;;;;;4978556;28;20058;-92
2021/11/29 06:51:47;;;;;;;9.98;6.82;;;12.30;99.90;;;;;;4988658;28;20050;-92
2021/11/29 06:54:15;;;;;;;7.70;4.57;;;12.30;99.90;;;;;;4970047;28;20035;-93
2021/11/29 06:57:04;;;;;;;7.88;4.90;;;12.30;99.90;;;;;;4968256;28;20466;-91
2021/11/29 06:59:46;;;;;;;;;;;;;;;;;;;;;
2021/11/29 07:02:13;;;;;;;12.88;7.30;;;12.40;99.90;;;;;;4978856;28;20416;-92
2021/11/29 07:04:40;;;;;;;9.68;5.35;;;12.40;99.90;;;;;;4961565;28;20537;-90
2021/11/29 07:07:06;;;;;;;10.60;6.28;;;12.40;99.90;;;;;;4963518;28;20042;-91
2021/11/29 07:09:32;;;;;;;11.38;6.38;;;12.50;99.90;;;;;;4961645;28;20099;-91
2021/11/29 07:11:58;;;;;;;14.77;7.65;;;12.50;99.90;;;;;;4960298;28;20046;-92
2021/11/29 07:14:26;;;;;;;10.15;6.55;;;12.50;99.90;;;;;;4977796;28;20102;-92
2021/11/29 07:16:57;;;;;;;10.63;5.90;;;12.50;99.90;;;;;;4962223;28;20458;-93
2021/11/29 07:19:23;;;;;;;10.15;6.47;;;12.50;99.90;;;;;;4961883;28;20059;-91
2021/11/29 07:21:52;;;;;;;11.82;6.97;;;12.50;99.90;;;;;;4960649;28;20101;-92
2021/11/29 07:24:18;;;;;;;9.85;6.43;;;12.50;99.90;;;;;;4961458;28;20477;-92
2021/11/29 07:26:45;;;;;;;12.77;7.28;;;12.50;99.90;;;;;;4960195;28;20140;-92
2021/11/29 07:29:14;;;;;;;10.20;7.03;;;12.60;99.90;;;;;;4959634;28;20130;-92
2021/11/29 07:31:45;;;;;;;7.18;4.93;;;12.60;99.90;;;;;;4959769;28;20062;-93
2021/11/29 07:34:11;;;;;;;7.80;4.85;;;12.60;99.90;;;;;;4961554;28;20101;-92
2021/11/29 07:36:37;;;;;;;13.90;6.93;;;12.60;99.90;;;;;;4959460;28;20129;-92
2021/11/29 07:39:05;;;;;;;11.23;6.45;;;12.60;99.90;;;;;;4959413;28;20085;-92
2021/11/29 07:41:31;;;;;;;8.75;4.85;;;12.60;99.90;;;;;;4960024;28;20039;-92
2021/11/29 07:44:08;;;;;;;8.60;5.78;;;12.60;99.90;;;;;;4959329;28;20030;-92
2021/11/29 07:46:34;;;;;;;13.55;5.72;;;12.70;99.90;;;;;;4959771;28;20035;-93
2021/11/29 07:49:08;;;;;;;13.60;6.72;;;12.70;99.90;;;;;;4959148;28;20030;-93
2021/11/29 07:51:43;;;;;;;10.40;6.63;;;12.80;99.90;;;;;;4958308;28;20049;-92
2021/11/29 07:54:11;;;;;;;12.90;6.60;;;12.80;99.90;;;;;;4975181;28;20046;-93
2021/11/29 07:56:43;;;;;;;7.20;5.25;;;12.90;99.90;;;;;;4959577;28;20046;-94
2021/11/29 07:59:53;;;;;;;11.77;5.85;;;12.90;99.90;;;;;;4960840;28;20043;-95
2021/11/29 08:02:26;;;;;;;10.85;5.90;;;13.00;99.90;;;;;;4922116;29;20036;-91
2021/11/29 08:04:53;;;;;;;8.73;6.07;;;13.10;99.90;;;;;;4930476;29;20399;-93
2021/11/29 08:07:26;;;;;;;8.43;5.55;;;13.10;99.90;;;;;;4912796;29;20055;-92
2021/11/29 08:10:02;;;;;;;10.50;5.10;;;13.10;99.90;;;;;;4944007;29;20087;-95
2021/11/29 08:12:42;;;;;;;9.95;5.43;;;13.20;99.90;;;;;;4919573;29;20058;-94
2021/11/29 08:15:08;;;;;;;12.40;6.03;;;13.20;99.90;;;;;;4929944;29;20044;-90
2021/11/29 08:17:40;;;;;;;6.85;4.10;;;13.20;99.90;;;;;;4924509;29;20025;-90
2021/11/29 08:20:27;;;;;;;10.55;5.90;;;13.20;99.90;;;;;;4928534;29;20496;-90
2021/11/29 08:23:02;;;;;;;9.10;5.65;;;13.20;99.90;;;;;;4922325;29;20047;-90
2021/11/29 08:26:06;;;;;;;13.45;5.63;;;13.30;99.90;;;;;;4929217;29;20056;-94
2021/11/29 08:28:42;;;;;;;6.50;3.78;;;13.30;99.90;;;;;;4917589;29;20040;-92
2021/11/29 08:31:20;;;;;;;6.30;4.85;;;13.30;99.90;;;;;;4905410;29;20096;-91
2021/11/29 08:34:07;;;;;;;8.82;5.15;;;13.30;99.90;;;;;;4930716;29;20040;-92
2021/11/29 08:36:35;;;;;;;6.47;4.28;;;13.30;99.90;;;;;;4921607;29;20044;-89
2021/11/29 08:39:03;;;;;;;8.45;4.68;;;13.40;99.90;;;;;;4908618;29;20047;-91
2021/11/29 08:41:33;;;;;;;8.00;5.70;;;13.40;99.90;;;;;;4932742;29;20099;-89
2021/11/29 08:44:00;;;;;;;6.38;4.47;;;13.40;99.90;;;;;;4944408;29;20502;-89
2021/11/29 08:46:51;;;;;;;11.95;5.57;;;13.50;99.90;;;;;;4906565;29;20043;-95
2021/11/29 08:49:20;;;;;;;7.72;4.53;;;13.50;99.90;;;;;;4938393;29;20079;-90
2021/11/29 08:51:49;;;;;;;5.85;3.45;;;13.50;99.90;;;;;;4940260;29;20032;-89
2021/11/29 08:54:16;;;;;;;6.70;4.95;;;13.60;99.90;;;;;;4949309;29;20031;-89
2021/11/29 08:56:46;;;;;;;8.13;4.80;;;13.60;99.90;;;;;;4906142;29;20130;-90
2021/11/29 08:59:17;;;;;;;6.10;4.70;;;13.60;99.90;;;;;;4922935;29;20051;-90
2021/11/29 09:01:44;;;;;;;9.57;5.22;;;13.60;99.90;;;;;;4917988;29;20070;-91
2021/11/29 09:04:12;;;;;;;8.10;4.93;;;13.60;99.90;;;;;;4942773;29;20108;-90
2021/11/29 09:06:39;;;;;;;6.70;5.28;;;13.60;99.90;;;;;;4926883;29;20040;-89
2021/11/29 09:09:06;;;;;;;7.72;5.25;;;13.50;99.90;;;;;;4941298;29;20046;-88
2021/11/29 09:11:37;;;;;;;14.15;5.47;;;13.50;99.90;;;;;;4943189;29;20050;-87
2021/11/29 09:14:04;;;;;;;7.55;4.40;;;13.50;99.90;;;;;;4941942;29;20063;-86
2021/11/29 09:16:31;;;;;;;5.05;4.03;;;13.40;99.90;;;;;;4939838;29;20047;-87
2021/11/29 09:18:58;;;;;;;6.03;4.40;;;13.40;99.90;;;;;;4901581;29;20056;-89
2021/11/29 09:21:25;;;;;;;9.20;4.30;;;13.40;99.90;;;;;;4939562;29;20188;-87
2021/11/29 09:23:51;;;;;;;8.05;4.38;;;13.40;99.90;;;;;;4934701;29;20492;-88
2021/11/29 09:26:17;;;;;;;7.20;4.85;;;13.30;99.90;;;;;;4959896;29;20166;-90
2021/11/29 09:28:45;;;;;;;6.97;4.65;;;13.30;99.90;;;;;;4973237;28;20042;-90
2021/11/29 09:31:12;;;;;;;7.32;4.15;;;13.30;99.90;;;;;;4974422;28;20039;-88
2021/11/29 09:33:39;;;;;;;7.18;4.75;;;13.30;99.90;;;;;;4973833;28;20405;-86
2021/11/29 09:36:05;;;;;;;7.38;4.20;;;13.20;99.90;;;;;;4973371;28;20036;-88
2021/11/29 09:38:32;;;;;;;11.63;5.03;;;13.20;99.90;;;;;;4973416;28;20065;-87
2021/11/29 09:40:58;;;;;;;21.23;4.95;;;13.20;99.90;;;;;;4959196;29;20039;-87
2021/11/29 09:43:24;;;;;;;7.00;4.40;;;13.20;99.90;;;;;;4986907;28;20119;-87
2021/11/29 09:45:52;;;;;;;8.60;4.63;;;13.20;99.90;;;;;;4989570;28;20035;-87
2021/11/29 09:48:19;;;;;;;10.40;5.53;;;13.10;99.90;;;;;;4971031;28;20043;-88
2021/11/29 09:50:50;;;;;;;8.50;5.57;;;13.10;99.90;;;;;;4979155;28;20040;-88
2021/11/29 09:53:18;;;;;;;7.30;4.60;;;13.10;99.90;;;;;;4975960;28;20039;-88
2021/11/29 09:55:44;;;;;;;8.77;5.18;;;13.10;99.90;;;;;;4976679;28;20067;-87
2021/11/29 09:58:11;;;;;;;5.47;4.15;;;13.10;99.90;;;;;;4972934;28;20371;-86
2021/11/29 10:00:41;;;;;;;5.50;3.08;;;13.10;99.90;;;;;;4973606;28;20451;-87
2021/11/29 10:03:07;;;;;;;11.43;5.88;;;13.10;99.90;;;;;;4973013;28;20035;-87
2021/11/29 10:05:35;;;;;;;6.55;4.43;;;13.10;99.90;;;;;;4972342;28;20087;-87
2021/11/29 10:08:35;;;;;;;5.47;3.60;;;13.10;99.90;;;;;;4973675;28;20098;-88
2021/11/29 10:11:11;;;;;;;11.65;4.47;;;13.10;99.90;;;;;;4972537;28;20038;-87
2021/11/29 10:13:54;;;;;;;7.05;4.45;;;13.10;99.90;;;;;;4972000;28;20043;-88
2021/11/29 10:16:30;;;;;;;17.42;4.00;;;13.10;99.90;;;;;;4974547;28;20095;-87
2021/11/29 10:18:57;;;;;;;6.47;3.97;;;13.10;99.90;;;;;;4976993;28;20087;-88
2021/11/29 10:21:23;;;;;;;8.27;4.15;;;13.10;99.90;;;;;;4948255;29;20086;-88
2021/11/29 10:23:52;;;;;;;5.80;4.45;;;13.10;99.90;;;;;;4945651;29;20039;-89
2021/11/29 10:26:52;;;;;;;13.45;4.32;;;13.10;99.90;;;;;;4948631;29;20047;-90
2021/11/29 10:29:18;;;;;;;6.45;4.18;;;13.00;99.90;;;;;;4933665;29;20447;-89
2021/11/29 10:31:56;;;;;;;8.35;4.60;;;13.00;99.90;;;;;;4930514;29;20039;-89
2021/11/29 10:34:30;;;;;;;8.40;3.72;;;13.00;99.90;;;;;;4953254;29;20095;-88
2021/11/29 10:37:12;;;;;;;5.00;3.97;;;13.00;99.90;;;;;;4948561;29;20046;-88
2021/11/29 10:39:44;;;;;;;6.50;3.63;;;13.00;99.90;;;;;;4941405;29;20055;-88
2021/11/29 10:42:14;;;;;;;4.93;2.97;;;12.90;99.90;;;;;;4923828;29;20506;-88
2021/11/29 10:44:43;;;;;;;8.73;3.78;;;13.00;99.90;;;;;;4938380;29;20031;-88
2021/11/29 10:47:12;;;;;;;11.82;3.67;;;13.00;99.90;;;;;;4953442;29;20138;-86
2021/11/29 10:49:44;;;;;;;6.40;3.90;;;13.00;99.90;;;;;;4966976;28;20051;-88
2021/11/29 10:52:17;;;;;;;6.38;3.55;;;13.00;99.90;;;;;;4958136;29;20063;-89
2021/11/29 10:54:44;;;;;;;9.68;4.00;;;13.00;99.90;;;;;;4960668;29;20497;-90
2021/11/29 10:57:15;;;;;;;5.63;2.90;;;13.00;99.90;;;;;;4958768;29;20102;-89
2021/11/29 10:59:50;;;;;;;5.10;2.47;;;13.10;99.90;;;;;;4952208;29;20213;-90
2021/11/29 11:02:21;;;;;;;7.90;3.40;;;13.10;99.90;;;;;;4947754;29;20039;-90
2021/11/29 11:05:00;;;;;;;8.10;3.20;;;13.10;99.90;;;;;;4943048;29;20039;-90
2021/11/29 11:07:26;;;;;;;4.65;3.03;;;13.10;99.90;;;;;;4952132;29;20046;-90
2021/11/29 11:09:58;;;;;;;5.30;2.38;;;13.10;99.90;;;;;;4962466;28;20035;-88
2021/11/29 11:12:28;;;;;;;3.88;2.42;;;13.20;99.90;;;;;;4965590;29;20174;-89
2021/11/29 11:15:07;;;;;;;4.40;3.03;;;13.20;99.90;;;;;;4966039;29;20072;-91
2021/11/29 11:17:33;;;;;;;7.15;4.18;;;13.20;99.90;;;;;;4969023;29;20047;-91
2021/11/29 11:20:09;;;;;;;9.10;4.28;;;13.20;99.90;;;;;;4950483;29;20043;-92
2021/11/29 11:22:45;;;;;;;9.05;5.03;;;13.10;99.90;;;;;;4951005;29;20047;-90
2021/11/29 11:25:18;;;;;;;6.53;4.55;;;13.00;99.90;;;;;;4944567;29;20055;-87
2021/11/29 11:28:03;;;;;;;7.35;3.83;;;13.00;99.90;;;;;;4931631;29;20074;-88
2021/11/29 11:30:32;;;;;;;6.78;3.88;;;12.90;99.90;;;;;;4927680;29;20044;-89
2021/11/29 11:33:15;;;;;;;6.20;3.60;;;12.80;99.90;;;;;;4949978;29;20032;-90
2021/11/29 11:35:47;;;;;;;4.47;3.00;;;12.80;99.90;;;;;;4952703;29;20035;-89
2021/11/29 11:38:18;;;;;;;6.63;3.97;;;12.80;99.90;;;;;;4958672;29;20067;-90
2021/11/29 11:40:49;;;;;;;5.10;3.88;;;12.70;99.90;;;;;;4953510;28;20055;-90
2021/11/29 11:43:24;;;;;;;6.63;3.55;;;12.70;99.90;;;;;;4968070;28;20043;-89
2021/11/29 11:45:52;;;;;;;6.82;3.78;;;12.70;99.90;;;;;;4960409;28;20035;-90
2021/11/29 11:48:19;;;;;;;8.18;3.65;;;12.70;99.90;;;;;;4950099;29;20050;-92
2021/11/29 11:50:49;;;;;;;11.05;5.13;;;12.70;99.90;;;;;;4953133;28;20032;-91
2021/11/29 11:53:15;;;;;;;5.50;3.45;;;12.70;99.90;;;;;;4953697;29;20118;-92
2021/11/29 11:55:47;;;;;;;12.32;4.55;;;12.70;99.90;;;;;;4953301;29;20577;-91
2021/11/29 11:58:31;;;;;;;6.50;3.97;;;12.70;99.90;;;;;;4940709;29;20051;-92
2021/11/29 12:01:08;;;;;;;;;;;12.70;99.90;;;;;;4929296;29;20475;-92
2021/11/29 12:03:44;;;;;;;5.53;2.83;;;12.80;99.90;;;;;;4936110;29;19914;-92
2021/11/29 12:06:16;;;;;;;4.13;2.65;;;12.80;99.90;;;;;;4939939;28;20063;-92
2021/11/29 12:09:07;;;;;;;4.57;2.80;;;12.90;99.90;;;;;;4938368;29;20067;-92
2021/11/29 12:11:38;;;;;;;5.35;3.13;;;12.90;99.90;;;;;;4947387;29;20482;-86
2021/11/29 12:14:18;;;;;;;4.32;2.33;;;12.90;99.90;;;;;;4927406;29;20192;-87
2021/11/29 12:17:00;;;;;;;6.30;3.33;;;13.00;99.90;;;;;;4950450;29;20491;-86
2021/11/29 12:22:31;;;;;;;5.13;3.58;;;13.10;99.90;;;;;;4958952;28;20031;-87
2021/11/29 12:25:21;;;;;;;5.38;3.03;;;13.10;99.90;;;;;;4951851;29;20483;-88
2021/11/29 12:28:20;;;;;;;5.18;3.17;;;13.10;99.90;;;;;;4953545;28;20039;-90
2021/11/29 12:30:49;;;;;;;6.05;3.58;;;13.10;99.90;;;;;;4952812;28;20130;-89
2021/11/29 12:33:20;;;;;;;5.32;3.47;;;13.10;99.90;;;;;;4942632;28;20435;-88
2021/11/29 12:36:03;;;;;;;8.02;4.57;;;13.20;99.90;;;;;;4949413;28;20039;-90
2021/11/29 12:38:58;;;;;;;4.95;4.05;;;13.20;99.90;;;;;;4950377;28;20051;-93
2021/11/29 12:41:37;;;;;;;10.18;4.70;;;13.10;99.90;;;;;;4959341;28;20074;-94
2021/11/29 12:44:05;;;;;;;6.63;3.95;;;13.10;99.90;;;;;;4968555;28;20081;-93
2021/11/29 12:46:33;;;;;;;4.57;2.92;;;13.10;99.90;;;;;;4968772;28;20035;-94
2021/11/29 12:49:08;;;;;;;6.55;4.15;;;13.10;99.90;;;;;;4971152;28;20038;-94
2021/11/29 12:51:54;;;;;;;11.98;6.65;;;13.20;99.90;;;;;;4969467;28;20049;-94
2021/11/29 12:54:43;;;;;;;20.33;8.85;;;13.10;99.90;;;;;;4962885;28;20042;-95
2021/11/29 12:57:41;;;;;;;17.23;7.72;;;13.10;99.90;;;;;;4964899;28;20031;-94
2021/11/29 13:00:28;;;;;;;9.82;5.05;;;13.00;99.90;;;;;;4907120;28;20494;-94
2021/11/29 13:03:15;;;;;;;3.90;2.78;;;12.90;99.90;;;;;;4962941;28;20054;-95
2021/11/29 13:05:52;;;;;;;6.53;4.22;;;12.80;99.90;;;;;;4980830;28;20034;-95
2021/11/29 13:08:27;;;;;;;5.50;3.40;;;12.80;99.90;;;;;;4967260;28;20531;-96
2021/11/29 13:11:36;;;;;;;5.13;3.65;;;12.80;99.90;;;;;;4976503;28;20031;-95